createdAt,value
2018-11-07T00:04:02.214Z,14.13
2018-11-07T00:09:05.626Z,14.23
2018-11-07T00:14:09.130Z,14.22
2018-11-07T01:45:58.164Z,14.11
2018-11-07T01:51:02.249Z,14.00
2018-11-07T01:56:05.582Z,13.90
2018-11-07T03:33:11.934Z,13.40
2018-11-07T03:38:15.266Z,13.39
2018-11-07T03:43:18.591Z,13.31
2018-11-07T04:45:58.563Z,13.11
2018-11-07T04:51:01.884Z,13.06
2018-11-07T04:56:05.983Z,13.04
2018-11-07T05:35:39.263Z,12.84
2018-11-07T05:40:42.584Z,12.79
2018-11-07T05:45:46.672Z,12.77
2018-11-07T05:50:49.997Z,12.77
2018-11-07T05:55:53.318Z,12.78
2018-11-07T06:00:56.638Z,12.70
2018-11-07T06:05:59.975Z,12.69
2018-11-07T06:11:04.064Z,12.70
2018-11-07T06:16:13.159Z,12.64
2018-11-07T06:21:16.418Z,12.68
2018-11-07T06:26:19.737Z,12.62
2018-11-07T06:31:23.072Z,12.53
2018-11-07T06:36:26.395Z,12.49
2018-11-07T06:41:30.499Z,12.49
2018-11-07T06:46:34.206Z,12.53
2018-11-07T06:51:37.677Z,12.57
2018-11-07T06:56:41.947Z,12.55
2018-11-07T07:01:45.266Z,12.55
2018-11-07T07:06:48.866Z,12.61
2018-11-07T07:11:52.197Z,12.61
2018-11-07T07:16:55.514Z,12.62
2018-11-07T07:21:59.222Z,12.63
2018-11-07T07:27:02.753Z,12.64
2018-11-07T08:00:56.807Z,12.80
2018-11-07T08:06:00.139Z,12.81
2018-11-07T08:11:04.243Z,12.90
2018-11-07T09:02:07.967Z,13.92
2018-11-07T09:07:12.242Z,14.16
2018-11-07T09:12:15.845Z,14.33
2018-11-07T10:03:20.583Z,15.90
2018-11-07T10:08:24.695Z,15.92
2018-11-07T10:13:28.036Z,16.13
2018-11-07T11:04:31.994Z,17.12
2018-11-07T11:09:35.374Z,17.28
2018-11-07T11:14:38.710Z,17.33
2018-11-07T12:05:43.475Z,20.08
2018-11-07T12:10:46.804Z,20.44
2018-11-07T13:01:51.531Z,20.98
2018-11-07T13:06:54.860Z,20.73
2018-11-07T13:11:58.187Z,20.65
2018-11-07T14:03:02.687Z,25.37
2018-11-07T14:08:06.023Z,25.41
2018-11-07T14:13:09.351Z,25.64
2018-11-07T15:04:13.610Z,25.34
2018-11-07T15:09:16.942Z,24.18
2018-11-07T15:14:20.270Z,23.51
2018-11-07T15:48:10.020Z,19.97
2018-11-07T15:53:13.355Z,19.97
2018-11-07T15:58:19.235Z,19.51
2018-11-07T16:32:09.653Z,17.52
2018-11-07T16:37:12.980Z,17.25
2018-11-07T16:42:16.321Z,17.12
2018-11-07T16:47:20.498Z,16.98
2018-11-07T16:52:24.616Z,16.82
2018-11-07T16:57:27.963Z,16.67
2018-11-07T17:02:31.300Z,16.30
2018-11-07T17:07:34.636Z,15.80
2018-11-07T17:12:38.029Z,15.60
2018-11-07T17:17:41.348Z,15.00
2018-11-07T17:22:45.443Z,15.15
2018-11-07T17:27:48.787Z,14.95
2018-11-07T17:32:52.895Z,14.89
2018-11-07T17:37:56.236Z,15.16
2018-11-07T17:43:00.335Z,15.21
2018-11-07T17:48:03.757Z,15.30
2018-11-07T17:53:07.041Z,15.15
2018-11-07T17:58:18.746Z,15.34
2018-11-07T18:03:22.088Z,15.69
2018-11-07T18:08:25.436Z,15.85
2018-11-07T18:13:29.551Z,16.16
2018-11-07T18:18:33.665Z,16.34
2018-11-07T18:23:37.003Z,16.44
2018-11-07T18:28:41.104Z,16.40
2018-11-07T18:33:44.443Z,16.23
2018-11-07T18:38:48.671Z,16.12
2018-11-07T18:43:52.782Z,15.92
2018-11-07T18:48:59.772Z,15.78
2018-11-07T18:54:03.106Z,15.75
2018-11-07T18:59:06.447Z,15.33
2018-11-07T19:04:09.799Z,15.13
2018-11-07T19:09:13.126Z,14.99
2018-11-07T19:14:16.482Z,15.17
2018-11-07T19:19:20.596Z,15.18
2018-11-07T19:24:23.943Z,15.09
2018-11-07T19:29:27.283Z,14.64
2018-11-07T19:34:30.628Z,14.54
2018-11-07T19:39:33.968Z,14.49
2018-11-07T19:44:37.308Z,14.66
2018-11-07T19:49:40.648Z,14.77
2018-11-07T19:54:43.990Z,14.88
2018-11-07T19:59:48.097Z,14.93
2018-11-07T20:04:51.430Z,14.91
2018-11-07T20:09:55.531Z,14.82
2018-11-07T20:14:58.867Z,14.44
2018-11-07T20:20:02.209Z,14.42
2018-11-07T20:25:05.611Z,14.30
2018-11-07T20:30:09.723Z,14.26
2018-11-07T20:35:13.056Z,14.21
2018-11-07T20:40:16.413Z,14.19
2018-11-07T20:45:19.763Z,14.34
2018-11-07T20:50:23.102Z,14.12
2018-11-07T20:55:26.449Z,13.92
2018-11-07T21:00:29.775Z,13.94
2018-11-07T21:05:33.110Z,13.90
2018-11-07T21:10:36.465Z,14.03
2018-11-07T21:15:39.811Z,14.01
2018-11-07T21:20:43.153Z,13.83
2018-11-07T21:25:47.257Z,14.11
2018-11-07T21:30:50.639Z,14.10
2018-11-07T21:35:54.729Z,14.17
2018-11-07T21:40:58.061Z,14.10
2018-11-07T21:46:01.399Z,13.47
2018-11-07T21:51:04.750Z,13.81
2018-11-07T21:56:08.092Z,13.51
2018-11-07T22:01:14.049Z,13.68
2018-11-07T22:06:18.210Z,13.84
2018-11-07T22:11:22.333Z,13.95
2018-11-07T22:16:45.695Z,14.13
2018-11-07T22:21:49.033Z,14.16
2018-11-07T22:26:53.127Z,14.16
2018-11-07T22:31:56.460Z,14.17
2018-11-07T22:36:59.798Z,14.13
2018-11-07T22:42:03.123Z,14.07
2018-11-07T22:47:28.334Z,13.82
2018-11-07T22:52:32.539Z,13.78
2018-11-07T22:57:41.673Z,13.67
2018-11-07T23:02:45.010Z,13.62
2018-11-07T23:07:48.349Z,13.54
2018-11-07T23:12:51.779Z,13.52
2018-11-07T23:17:55.119Z,13.46
2018-11-07T23:22:58.444Z,13.45
2018-11-07T23:28:12.474Z,13.53
2018-11-07T23:33:15.804Z,13.52
2018-11-07T23:38:36.562Z,13.50
2018-11-07T23:43:39.911Z,13.38
2018-11-07T23:48:43.251Z,13.36
2018-11-07T23:53:46.579Z,13.12
2018-11-07T23:58:49.911Z,12.94
